»·PEaware :: UAL390 KSAN-KSFO

UAL390 :: KSAN-KSFO

FLIGHT INFORMATION

Flight Status: Arrived
Operator:
United Airlines
More flights by this operator :: More flights under this callsign
Pilot: Alfredo R. (12181)
Aircraft: BOEING 737-800
(B738)
More flights by this aircraft type
Origin: KSAN San Diego Intl-Lindbergh
United States
Destination: KSFO San Francisco Intl
United States
More flights between these airports :: More routes between these airports
Route: +PADRZ2 IKAYE RIZIN SPLNT STOKD SERFR SERFR3
File this flight plan on PilotEdge
Remarks:
Altitude:
(Current/Filed)
36,000ft
Speed:
(Current/Filed)
425kts
Departed: 06-May-18 11:09 AM
Arrived: 06-May-18 12:18 PM
Distance/Time
Traveled:
388nm/1:09
Distance/Time
To Go:
Arrived

Flight Plot

Page will automatically refresh every two minutes.

Flight plan parsing failed; only flown route is shown


Map Options




Map Legend


Flown Route
Filed Route
Departure Airport
Arrival Airport
Navaid (VOR, NDB)
Fix

Horizontal Profiles

Position Reports

Time Latitude Longitude Heading Altitude Ground
Speed
06-May-18 10:38 32.734537 -117.203416 230 25ft 0kts
06-May-18 10:39 32.734537 -117.203416 230 25ft 0kts
06-May-18 10:40 32.734537 -117.203416 230 25ft 0kts
06-May-18 10:42 32.734537 -117.203416 230 25ft 0kts
06-May-18 10:43 32.734537 -117.203416 230 25ft 0kts
06-May-18 10:43 32.734537 -117.203416 230 25ft 0kts
06-May-18 10:44 32.734537 -117.203416 230 25ft 0kts
06-May-18 10:45 32.734537 -117.203416 230 25ft 0kts
06-May-18 10:46 32.734537 -117.203416 230 25ft 0kts
06-May-18 10:47 32.734537 -117.203416 230 25ft 0kts
06-May-18 10:48 32.734537 -117.203416 230 25ft 0kts
06-May-18 10:49 32.734537 -117.203416 230 25ft 0kts
06-May-18 10:50 32.734814 -117.203023 210 25ft 2kts
06-May-18 10:51 32.735161 -117.203429 107 25ft 1kts
06-May-18 10:52 32.735062 -117.203037 106 25ft 0kts
06-May-18 10:53 32.735062 -117.203037 106 25ft 0kts
06-May-18 10:54 32.735062 -117.203037 106 25ft 0kts
06-May-18 10:55 32.735062 -117.203037 106 25ft 0kts
06-May-18 10:56 32.735062 -117.203037 106 25ft 0kts
06-May-18 10:57 32.735062 -117.203037 106 25ft 0kts
06-May-18 10:58 32.735062 -117.203037 106 25ft 0kts
06-May-18 10:59 32.735455 -117.201886 85 25ft 7kts
06-May-18 11:00 32.734607 -117.198230 106 25ft 15kts
06-May-18 11:01 32.733420 -117.193320 106 25ft 15kts
06-May-18 11:02 32.732199 -117.188303 106 25ft 15kts
06-May-18 11:03 32.730968 -117.183217 105 25ft 16kts
06-May-18 11:04 32.729777 -117.178347 106 25ft 9kts
06-May-18 11:05 32.729523 -117.176780 76 25ft 0kts
06-May-18 11:06 32.729675 -117.176164 71 25ft 7kts
06-May-18 11:07 32.730475 -117.176928 286 25ft 27kts
06-May-18 11:08 32.740025 -117.214189 293 816ft 173kts
06-May-18 11:09 32.768559 -117.264422 302 2727ft 206kts
06-May-18 11:10 32.801455 -117.321896 303 4333ft 259kts
06-May-18 11:11 32.846455 -117.392003 305 6754ft 278kts
06-May-18 11:13 32.894573 -117.466644 305 9012ft 293kts
06-May-18 11:14 32.945174 -117.545365 305 10825ft 320kts
06-May-18 11:15 33.000669 -117.631902 305 12998ft 335kts
06-May-18 11:16 33.057828 -117.721237 304 14988ft 353kts
06-May-18 11:17 33.129274 -117.799233 317 16949ft 354kts
06-May-18 11:18 33.204391 -117.876036 312 19288ft 360kts
06-May-18 11:19 33.275822 -117.960670 311 21459ft 367kts
06-May-18 11:20 33.348359 -118.047188 311 23105ft 380kts
06-May-18 11:21 33.422000 -118.135242 311 23111ft 372kts
06-May-18 11:22 33.494992 -118.222800 310 24336ft 378kts
06-May-18 11:23 33.569194 -118.312074 311 25989ft 385kts
06-May-18 11:24 33.645222 -118.403805 311 27453ft 392kts
06-May-18 11:25 33.721912 -118.496566 311 28794ft 399kts
06-May-18 11:26 33.800162 -118.591439 311 30206ft 400kts
06-May-18 11:27 33.876845 -118.684669 310 31752ft 393kts
06-May-18 11:28 33.952962 -118.777510 310 33115ft 387kts
06-May-18 11:29 34.027498 -118.868685 309 34334ft 381kts
06-May-18 11:30 34.101124 -118.958970 309 35355ft 376kts
06-May-18 11:31 34.167358 -119.053971 298 36068ft 373kts
06-May-18 11:32 34.223222 -119.163530 298 36064ft 401kts
06-May-18 11:33 34.281004 -119.276586 297 36142ft 413kts
06-May-18 11:34 34.339733 -119.391156 298 37016ft 403kts
06-May-18 11:35 34.397348 -119.503452 297 37941ft 394kts
06-May-18 11:36 34.468607 -119.603568 309 38065ft 400kts
06-May-18 11:37 34.546251 -119.699108 308 38061ft 400kts
06-May-18 11:38 34.623326 -119.794506 308 38072ft 400kts
06-May-18 11:39 34.700689 -119.890600 308 38096ft 401kts
06-May-18 11:40 34.778040 -119.986710 308 38101ft 396kts
06-May-18 11:41 34.855053 -120.082465 308 38098ft 397kts
06-May-18 11:42 34.932193 -120.178315 308 38109ft 398kts
06-May-18 11:43 35.009546 -120.274388 308 38109ft 397kts
06-May-18 11:44 35.086759 -120.370216 309 38105ft 398kts
06-May-18 11:45 35.167873 -120.461987 311 38094ft 400kts
06-May-18 11:46 35.249807 -120.553917 311 38086ft 401kts
06-May-18 11:47 35.331529 -120.645771 311 38081ft 400kts
06-May-18 11:48 35.411149 -120.735496 311 38093ft 398kts
06-May-18 11:49 35.495101 -120.828784 315 38106ft 403kts
06-May-18 11:50 35.583943 -120.911576 316 38113ft 404kts
06-May-18 11:51 35.673156 -120.994454 316 38113ft 404kts
06-May-18 11:52 35.761846 -121.077033 316 38101ft 398kts
06-May-18 11:53 35.847091 -121.156542 315 37560ft 385kts
06-May-18 11:54 35.931282 -121.235210 316 35642ft 383kts
06-May-18 11:55 36.016741 -121.315266 316 33677ft 394kts
06-May-18 11:56 36.106315 -121.394283 322 31716ft 406kts
06-May-18 11:57 36.201835 -121.468898 323 29728ft 414kts
06-May-18 11:58 36.298257 -121.544274 322 27717ft 407kts
06-May-18 11:59 36.390466 -121.616473 322 25709ft 394kts
06-May-18 12:00 36.480626 -121.687351 321 23806ft 383kts
06-May-18 12:01 36.568589 -121.756800 322 22029ft 376kts
06-May-18 12:02 36.655043 -121.825241 322 20256ft 367kts
06-May-18 12:03 36.739769 -121.891882 327 18566ft 363kts
06-May-18 12:04 36.838157 -121.923207 342 17094ft 365kts
06-May-18 12:05 36.935612 -121.949824 342 15610ft 358kts
06-May-18 12:06 37.029500 -121.983849 338 14123ft 349kts
06-May-18 12:07 37.120690 -122.019393 338 12381ft 341kts
06-May-18 12:08 37.208217 -122.053612 339 10609ft 333kts
06-May-18 12:09 37.288882 -122.085166 339 8877ft 306kts
06-May-18 12:10 37.362194 -122.113882 339 7239ft 267kts
06-May-18 12:11 37.428122 -122.137507 341 5726ft 237kts
06-May-18 12:12 37.488193 -122.158041 341 4537ft 218kts
06-May-18 12:13 37.538780 -122.180984 304 3294ft 180kts
06-May-18 12:14 37.558933 -122.232305 294 3126ft 160kts
06-May-18 12:15 37.579697 -122.282219 295 1662ft 158kts
06-May-18 12:16 37.598106 -122.325974 296 592ft 130kts
06-May-18 12:17 37.614737 -122.365543 295 11ft 104kts
06-May-18 12:18 37.618756 -122.375488 289 22ft 18kts
06-May-18 12:19 37.618926 -122.379131 268 29ft 7kts
06-May-18 12:20 37.620383 -122.383756 296 31ft 17kts
06-May-18 12:21 37.620151 -122.386320 284 30ft 3kts
06-May-18 12:22 37.620228 -122.386632 288 30ft 0kts

Navigation Log

Ident Type
Flight plan parsing failed, navigation log unavailable